sensor_id;sensor_type;location;lat;lon;timestamp;temperature;humidity
40996;DHT22;26723;57.478;12.066;2023-05-10T00:01:55;11.70;99.90
40996;DHT22;26723;57.478;12.066;2023-05-10T00:05:04;11.70;99.90
40996;DHT22;26723;57.478;12.066;2023-05-10T00:08:13;11.70;99.90
40996;DHT22;26723;57.478;12.066;2023-05-10T00:11:23;11.70;99.90
40996;DHT22;26723;57.478;12.066;2023-05-10T00:14:31;11.70;99.90
40996;DHT22;26723;57.478;12.066;2023-05-10T00:17:40;11.60;99.90
40996;DHT22;26723;57.478;12.066;2023-05-10T00:20:49;11.50;99.90
40996;DHT22;26723;57.478;12.066;2023-05-10T00:23:57;11.50;99.90
40996;DHT22;26723;57.478;12.066;2023-05-10T00:27:07;11.40;99.90
40996;DHT22;26723;57.478;12.066;2023-05-10T00:30:16;11.40;99.90
40996;DHT22;26723;57.478;12.066;2023-05-10T00:33:25;11.40;99.90
40996;DHT22;26723;57.478;12.066;2023-05-10T00:36:34;11.50;99.90
40996;DHT22;26723;57.478;12.066;2023-05-10T00:39:42;11.50;99.90
40996;DHT22;26723;57.478;12.066;2023-05-10T00:42:52;11.50;99.90
40996;DHT22;26723;57.478;12.066;2023-05-10T00:46:01;11.50;99.90
40996;DHT22;26723;57.478;12.066;2023-05-10T00:49:09;11.50;99.90
40996;DHT22;26723;57.478;12.066;2023-05-10T00:52:18;11.50;99.90
40996;DHT22;26723;57.478;12.066;2023-05-10T00:55:27;11.50;99.90
40996;DHT22;26723;57.478;12.066;2023-05-10T00:58:37;11.50;99.90
40996;DHT22;26723;57.478;12.066;2023-05-10T01:01:46;11.40;99.90
40996;DHT22;26723;57.478;12.066;2023-05-10T01:04:55;11.40;99.90
40996;DHT22;26723;57.478;12.066;2023-05-10T01:08:04;11.60;99.90
40996;DHT22;26723;57.478;12.066;2023-05-10T01:11:13;11.50;99.90
40996;DHT22;26723;57.478;12.066;2023-05-10T01:14:24;11.40;99.90
40996;DHT22;26723;57.478;12.066;2023-05-10T01:17:33;11.30;99.90
40996;DHT22;26723;57.478;12.066;2023-05-10T01:20:48;11.20;99.90
40996;DHT22;26723;57.478;12.066;2023-05-10T01:24:33;11.30;99.90
40996;DHT22;26723;57.478;12.066;2023-05-10T01:28:07;11.20;99.90
40996;DHT22;26723;57.478;12.066;2023-05-10T01:35:03;11.30;99.90
40996;DHT22;26723;57.478;12.066;2023-05-10T01:38:18;11.20;99.90
40996;DHT22;26723;57.478;12.066;2023-05-10T01:41:32;11.20;99.90
40996;DHT22;26723;57.478;12.066;2023-05-10T01:44:49;11.10;99.90
40996;DHT22;26723;57.478;12.066;2023-05-10T01:48:06;11.00;99.90
40996;DHT22;26723;57.478;12.066;2023-05-10T01:51:22;11.00;99.90
40996;DHT22;26723;57.478;12.066;2023-05-10T01:54:33;10.90;99.90
40996;DHT22;26723;57.478;12.066;2023-05-10T01:57:43;10.90;99.90
40996;DHT22;26723;57.478;12.066;2023-05-10T02:00:54;10.90;99.90
40996;DHT22;26723;57.478;12.066;2023-05-10T02:04:03;10.90;99.90
40996;DHT22;26723;57.478;12.066;2023-05-10T02:07:14;10.80;99.90
40996;DHT22;26723;57.478;12.066;2023-05-10T02:10:26;10.70;99.90
40996;DHT22;26723;57.478;12.066;2023-05-10T02:13:36;10.80;99.90
40996;DHT22;26723;57.478;12.066;2023-05-10T02:16:46;10.70;99.90
40996;DHT22;26723;57.478;12.066;2023-05-10T02:19:56;10.70;99.90
40996;DHT22;26723;57.478;12.066;2023-05-10T02:23:09;10.60;99.90
40996;DHT22;26723;57.478;12.066;2023-05-10T02:26:18;10.60;99.90
40996;DHT22;26723;57.478;12.066;2023-05-10T02:29:30;10.60;99.90
40996;DHT22;26723;57.478;12.066;2023-05-10T02:32:39;10.50;99.90
40996;DHT22;26723;57.478;12.066;2023-05-10T02:35:50;10.50;99.90
40996;DHT22;26723;57.478;12.066;2023-05-10T02:39:01;10.50;99.90
40996;DHT22;26723;57.478;12.066;2023-05-10T02:42:12;10.40;99.90
40996;DHT22;26723;57.478;12.066;2023-05-10T02:45:26;10.40;99.90
40996;DHT22;26723;57.478;12.066;2023-05-10T02:48:36;10.50;99.90
40996;DHT22;26723;57.478;12.066;2023-05-10T02:51:50;10.50;99.90
40996;DHT22;26723;57.478;12.066;2023-05-10T02:55:02;10.50;99.90
40996;DHT22;26723;57.478;12.066;2023-05-10T02:58:13;10.40;99.90
40996;DHT22;26723;57.478;12.066;2023-05-10T03:01:22;10.40;99.90
40996;DHT22;26723;57.478;12.066;2023-05-10T03:04:30;10.40;99.90
40996;DHT22;26723;57.478;12.066;2023-05-10T03:07:39;10.40;99.90
40996;DHT22;26723;57.478;12.066;2023-05-10T03:11:01;10.40;99.90
40996;DHT22;26723;57.478;12.066;2023-05-10T03:17:48;10.40;99.90
40996;DHT22;26723;57.478;12.066;2023-05-10T03:21:03;10.30;99.90
40996;DHT22;26723;57.478;12.066;2023-05-10T03:24:15;10.30;99.90
40996;DHT22;26723;57.478;12.066;2023-05-10T03:27:27;10.30;99.90
40996;DHT22;26723;57.478;12.066;2023-05-10T03:30:36;10.30;99.90
40996;DHT22;26723;57.478;12.066;2023-05-10T03:33:47;10.30;99.90
40996;DHT22;26723;57.478;12.066;2023-05-10T03:37:01;10.40;99.90
40996;DHT22;26723;57.478;12.066;2023-05-10T03:40:11;10.30;99.90
40996;DHT22;26723;57.478;12.066;2023-05-10T03:43:23;10.30;99.90
40996;DHT22;26723;57.478;12.066;2023-05-10T03:46:32;10.30;99.90
40996;DHT22;26723;57.478;12.066;2023-05-10T03:49:41;10.30;99.90
40996;DHT22;26723;57.478;12.066;2023-05-10T03:52:52;10.20;99.90
40996;DHT22;26723;57.478;12.066;2023-05-10T03:56:02;10.20;99.90
40996;DHT22;26723;57.478;12.066;2023-05-10T03:59:11;10.30;99.90
40996;DHT22;26723;57.478;12.066;2023-05-10T04:02:20;10.30;99.90
40996;DHT22;26723;57.478;12.066;2023-05-10T04:05:29;10.30;99.90
40996;DHT22;26723;57.478;12.066;2023-05-10T04:08:38;10.30;99.90
40996;DHT22;26723;57.478;12.066;2023-05-10T04:11:46;10.30;99.90
40996;DHT22;26723;57.478;12.066;2023-05-10T04:14:56;10.30;99.90
40996;DHT22;26723;57.478;12.066;2023-05-10T04:18:05;10.30;99.90
40996;DHT22;26723;57.478;12.066;2023-05-10T04:21:15;10.30;99.90
40996;DHT22;26723;57.478;12.066;2023-05-10T04:24:24;10.40;99.90
40996;DHT22;26723;57.478;12.066;2023-05-10T04:27:32;10.40;99.90
40996;DHT22;26723;57.478;12.066;2023-05-10T04:30:42;10.40;99.90
40996;DHT22;26723;57.478;12.066;2023-05-10T04:33:50;10.40;99.90
40996;DHT22;26723;57.478;12.066;2023-05-10T04:36:59;10.50;99.90
40996;DHT22;26723;57.478;12.066;2023-05-10T04:40:08;10.60;99.90
40996;DHT22;26723;57.478;12.066;2023-05-10T04:43:17;10.60;99.90
40996;DHT22;26723;57.478;12.066;2023-05-10T04:46:27;10.70;99.90
40996;DHT22;26723;57.478;12.066;2023-05-10T04:49:44;10.70;99.90
40996;DHT22;26723;57.478;12.066;2023-05-10T04:52:53;10.70;99.90
40996;DHT22;26723;57.478;12.066;2023-05-10T04:56:01;10.80;99.90
40996;DHT22;26723;57.478;12.066;2023-05-10T04:59:10;10.80;99.90
40996;DHT22;26723;57.478;12.066;2023-05-10T05:02:19;10.90;99.90
40996;DHT22;26723;57.478;12.066;2023-05-10T05:05:28;11.00;99.90
40996;DHT22;26723;57.478;12.066;2023-05-10T05:08:39;11.00;99.90
40996;DHT22;26723;57.478;12.066;2023-05-10T05:11:48;11.10;99.90
40996;DHT22;26723;57.478;12.066;2023-05-10T05:14:56;11.20;99.90
40996;DHT22;26723;57.478;12.066;2023-05-10T05:18:06;11.30;99.90
40996;DHT22;26723;57.478;12.066;2023-05-10T05:21:15;11.40;99.90
40996;DHT22;26723;57.478;12.066;2023-05-10T05:24:24;11.60;99.90
40996;DHT22;26723;57.478;12.066;2023-05-10T05:27:32;11.70;99.90
40996;DHT22;26723;57.478;12.066;2023-05-10T05:30:41;11.90;99.90
40996;DHT22;26723;57.478;12.066;2023-05-10T05:33:50;12.00;99.90
40996;DHT22;26723;57.478;12.066;2023-05-10T05:36:59;12.20;99.90
40996;DHT22;26723;57.478;12.066;2023-05-10T05:40:11;12.20;99.90
40996;DHT22;26723;57.478;12.066;2023-05-10T05:43:20;12.30;99.90
40996;DHT22;26723;57.478;12.066;2023-05-10T05:46:28;12.50;99.90
40996;DHT22;26723;57.478;12.066;2023-05-10T05:49:38;12.60;99.90
40996;DHT22;26723;57.478;12.066;2023-05-10T05:52:47;12.70;99.90
40996;DHT22;26723;57.478;12.066;2023-05-10T05:55:56;12.80;99.90
40996;DHT22;26723;57.478;12.066;2023-05-10T05:59:05;13.00;99.90
40996;DHT22;26723;57.478;12.066;2023-05-10T06:02:13;13.10;99.90
40996;DHT22;26723;57.478;12.066;2023-05-10T06:05:23;13.40;99.90
40996;DHT22;26723;57.478;12.066;2023-05-10T06:08:32;13.70;99.90
40996;DHT22;26723;57.478;12.066;2023-05-10T06:11:41;13.90;99.90
40996;DHT22;26723;57.478;12.066;2023-05-10T06:14:49;14.20;99.90
40996;DHT22;26723;57.478;12.066;2023-05-10T06:17:58;14.70;99.90
40996;DHT22;26723;57.478;12.066;2023-05-10T06:21:08;15.50;99.90
40996;DHT22;26723;57.478;12.066;2023-05-10T06:24:17;17.60;99.90
40996;DHT22;26723;57.478;12.066;2023-05-10T06:27:27;19.70;99.90
40996;DHT22;26723;57.478;12.066;2023-05-10T06:30:36;21.40;99.40
40996;DHT22;26723;57.478;12.066;2023-05-10T06:33:45;22.20;97.50
40996;DHT22;26723;57.478;12.066;2023-05-10T06:36:54;23.20;94.90
40996;DHT22;26723;57.478;12.066;2023-05-10T06:40:04;22.30;94.50
40996;DHT22;26723;57.478;12.066;2023-05-10T06:43:13;22.40;95.40
40996;DHT22;26723;57.478;12.066;2023-05-10T06:46:21;22.50;93.10
40996;DHT22;26723;57.478;12.066;2023-05-10T06:49:30;22.50;94.30
40996;DHT22;26723;57.478;12.066;2023-05-10T06:52:39;22.30;93.80
40996;DHT22;26723;57.478;12.066;2023-05-10T06:55:49;21.90;95.20
40996;DHT22;26723;57.478;12.066;2023-05-10T06:58:58;21.40;95.50
40996;DHT22;26723;57.478;12.066;2023-05-10T07:02:07;20.90;94.90
40996;DHT22;26723;57.478;12.066;2023-05-10T07:05:15;21.80;95.50
40996;DHT22;26723;57.478;12.066;2023-05-10T07:08:25;22.20;93.50
40996;DHT22;26723;57.478;12.066;2023-05-10T07:11:34;21.20;93.60
40996;DHT22;26723;57.478;12.066;2023-05-10T07:14:44;20.60;94.50
40996;DHT22;26723;57.478;12.066;2023-05-10T07:17:53;21.00;94.60
40996;DHT22;26723;57.478;12.066;2023-05-10T07:21:02;21.80;94.10
40996;DHT22;26723;57.478;12.066;2023-05-10T07:24:15;21.40;94.40
40996;DHT22;26723;57.478;12.066;2023-05-10T07:27:26;21.40;93.50
40996;DHT22;26723;57.478;12.066;2023-05-10T07:30:34;21.70;93.50
40996;DHT22;26723;57.478;12.066;2023-05-10T07:33:43;22.00;93.50
40996;DHT22;26723;57.478;12.066;2023-05-10T07:36:51;22.40;91.60
40996;DHT22;26723;57.478;12.066;2023-05-10T07:40:03;22.80;92.10
40996;DHT22;26723;57.478;12.066;2023-05-10T07:43:11;23.10;91.80
40996;DHT22;26723;57.478;12.066;2023-05-10T07:46:20;22.90;91.30
40996;DHT22;26723;57.478;12.066;2023-05-10T07:49:29;23.10;91.80
40996;DHT22;26723;57.478;12.066;2023-05-10T07:52:37;23.10;90.70
40996;DHT22;26723;57.478;12.066;2023-05-10T07:55:51;22.40;90.70
40996;DHT22;26723;57.478;12.066;2023-05-10T07:59:03;22.70;90.50
40996;DHT22;26723;57.478;12.066;2023-05-10T08:02:13;22.50;91.60
40996;DHT22;26723;57.478;12.066;2023-05-10T08:05:21;22.40;90.50
40996;DHT22;26723;57.478;12.066;2023-05-10T08:08:30;22.70;91.60
40996;DHT22;26723;57.478;12.066;2023-05-10T08:11:40;22.40;90.70
40996;DHT22;26723;57.478;12.066;2023-05-10T08:14:48;22.50;91.10
40996;DHT22;26723;57.478;12.066;2023-05-10T08:17:57;23.00;90.60
40996;DHT22;26723;57.478;12.066;2023-05-10T08:21:06;23.00;89.80
40996;DHT22;26723;57.478;12.066;2023-05-10T08:24:14;22.80;90.60
40996;DHT22;26723;57.478;12.066;2023-05-10T08:27:24;23.10;90.40
40996;DHT22;26723;57.478;12.066;2023-05-10T08:30:32;23.70;90.00
40996;DHT22;26723;57.478;12.066;2023-05-10T08:33:41;23.50;89.60
40996;DHT22;26723;57.478;12.066;2023-05-10T08:36:50;23.10;90.10
40996;DHT22;26723;57.478;12.066;2023-05-10T08:39:59;23.50;89.70
40996;DHT22;26723;57.478;12.066;2023-05-10T08:43:11;23.70;89.20
40996;DHT22;26723;57.478;12.066;2023-05-10T08:46:22;23.20;89.40
40996;DHT22;26723;57.478;12.066;2023-05-10T08:49:32;23.10;88.70
40996;DHT22;26723;57.478;12.066;2023-05-10T08:52:41;23.60;87.50
40996;DHT22;26723;57.478;12.066;2023-05-10T08:55:50;22.80;89.10
40996;DHT22;26723;57.478;12.066;2023-05-10T08:59:00;23.40;90.00
40996;DHT22;26723;57.478;12.066;2023-05-10T09:02:10;24.00;88.80
40996;DHT22;26723;57.478;12.066;2023-05-10T09:05:21;23.70;87.00
40996;DHT22;26723;57.478;12.066;2023-05-10T09:08:29;23.60;87.90
40996;DHT22;26723;57.478;12.066;2023-05-10T09:11:38;24.00;87.60
40996;DHT22;26723;57.478;12.066;2023-05-10T09:14:48;24.40;87.20
40996;DHT22;26723;57.478;12.066;2023-05-10T09:17:58;24.20;87.50
40996;DHT22;26723;57.478;12.066;2023-05-10T09:21:10;23.80;86.30
40996;DHT22;26723;57.478;12.066;2023-05-10T09:24:19;23.80;85.70
40996;DHT22;26723;57.478;12.066;2023-05-10T09:27:27;24.00;85.10
40996;DHT22;26723;57.478;12.066;2023-05-10T09:30:37;23.10;88.00
40996;DHT22;26723;57.478;12.066;2023-05-10T09:33:47;23.80;86.80
40996;DHT22;26723;57.478;12.066;2023-05-10T09:36:56;23.60;87.10
40996;DHT22;26723;57.478;12.066;2023-05-10T09:40:10;24.00;86.10
40996;DHT22;26723;57.478;12.066;2023-05-10T09:43:20;23.70;85.10
40996;DHT22;26723;57.478;12.066;2023-05-10T09:46:35;23.50;87.30
40996;DHT22;26723;57.478;12.066;2023-05-10T09:49:44;22.60;87.50
40996;DHT22;26723;57.478;12.066;2023-05-10T09:52:58;22.60;87.30
40996;DHT22;26723;57.478;12.066;2023-05-10T09:56:06;22.90;88.30
40996;DHT22;26723;57.478;12.066;2023-05-10T09:59:15;22.50;86.70
40996;DHT22;26723;57.478;12.066;2023-05-10T10:02:29;23.00;87.40
40996;DHT22;26723;57.478;12.066;2023-05-10T10:05:40;23.20;86.30
40996;DHT22;26723;57.478;12.066;2023-05-10T10:08:49;22.80;86.60
40996;DHT22;26723;57.478;12.066;2023-05-10T10:12:01;23.00;87.20
40996;DHT22;26723;57.478;12.066;2023-05-10T10:15:10;22.90;86.00
40996;DHT22;26723;57.478;12.066;2023-05-10T10:18:23;23.10;88.80
40996;DHT22;26723;57.478;12.066;2023-05-10T10:21:34;23.30;91.70
40996;DHT22;26723;57.478;12.066;2023-05-10T10:24:43;22.80;93.00
40996;DHT22;26723;57.478;12.066;2023-05-10T10:28:04;23.20;92.90
40996;DHT22;26723;57.478;12.066;2023-05-10T10:31:23;23.50;91.30
40996;DHT22;26723;57.478;12.066;2023-05-10T10:34:36;23.50;90.20
40996;DHT22;26723;57.478;12.066;2023-05-10T10:37:46;23.10;86.60
40996;DHT22;26723;57.478;12.066;2023-05-10T10:41:02;22.80;86.10
40996;DHT22;26723;57.478;12.066;2023-05-10T10:44:36;22.60;85.60
40996;DHT22;26723;57.478;12.066;2023-05-10T10:47:47;22.90;84.70
40996;DHT22;26723;57.478;12.066;2023-05-10T10:50:58;23.10;83.60
40996;DHT22;26723;57.478;12.066;2023-05-10T10:54:10;22.90;82.30
40996;DHT22;26723;57.478;12.066;2023-05-10T10:57:19;23.10;81.30
40996;DHT22;26723;57.478;12.066;2023-05-10T11:00:30;22.80;82.20
40996;DHT22;26723;57.478;12.066;2023-05-10T11:03:39;23.00;84.70
40996;DHT22;26723;57.478;12.066;2023-05-10T11:06:49;23.30;85.10
40996;DHT22;26723;57.478;12.066;2023-05-10T11:10:04;23.00;83.10
40996;DHT22;26723;57.478;12.066;2023-05-10T11:13:13;22.80;82.90
40996;DHT22;26723;57.478;12.066;2023-05-10T11:16:24;23.00;81.90
40996;DHT22;26723;57.478;12.066;2023-05-10T11:19:34;23.00;81.80
40996;DHT22;26723;57.478;12.066;2023-05-10T11:22:51;23.20;81.00
40996;DHT22;26723;57.478;12.066;2023-05-10T11:26:00;22.60;80.10
40996;DHT22;26723;57.478;12.066;2023-05-10T11:29:09;22.90;79.40
40996;DHT22;26723;57.478;12.066;2023-05-10T11:32:19;22.60;80.50
40996;DHT22;26723;57.478;12.066;2023-05-10T11:35:28;22.20;80.80
40996;DHT22;26723;57.478;12.066;2023-05-10T11:38:38;22.40;80.50
40996;DHT22;26723;57.478;12.066;2023-05-10T11:41:48;22.20;81.70
40996;DHT22;26723;57.478;12.066;2023-05-10T11:44:57;22.50;82.00
40996;DHT22;26723;57.478;12.066;2023-05-10T11:48:05;22.30;81.30
40996;DHT22;26723;57.478;12.066;2023-05-10T11:51:14;22.10;79.60
40996;DHT22;26723;57.478;12.066;2023-05-10T11:54:24;21.50;79.40
40996;DHT22;26723;57.478;12.066;2023-05-10T11:57:32;21.40;79.50
40996;DHT22;26723;57.478;12.066;2023-05-10T12:00:41;21.30;80.70
40996;DHT22;26723;57.478;12.066;2023-05-10T12:03:50;21.30;80.80
40996;DHT22;26723;57.478;12.066;2023-05-10T12:06:59;21.20;80.70
40996;DHT22;26723;57.478;12.066;2023-05-10T12:10:11;21.20;79.50
40996;DHT22;26723;57.478;12.066;2023-05-10T12:13:22;21.40;78.80
40996;DHT22;26723;57.478;12.066;2023-05-10T12:16:30;21.30;75.50
40996;DHT22;26723;57.478;12.066;2023-05-10T12:19:39;21.20;76.20
40996;DHT22;26723;57.478;12.066;2023-05-10T12:22:51;21.00;74.70
40996;DHT22;26723;57.478;12.066;2023-05-10T12:26:03;21.20;75.00
40996;DHT22;26723;57.478;12.066;2023-05-10T12:29:13;21.40;76.70
40996;DHT22;26723;57.478;12.066;2023-05-10T12:32:37;21.30;76.10
40996;DHT22;26723;57.478;12.066;2023-05-10T12:35:47;21.00;73.50
40996;DHT22;26723;57.478;12.066;2023-05-10T12:39:03;21.10;74.80
40996;DHT22;26723;57.478;12.066;2023-05-10T12:42:13;21.00;75.00
40996;DHT22;26723;57.478;12.066;2023-05-10T12:45:21;20.90;74.10
40996;DHT22;26723;57.478;12.066;2023-05-10T12:48:30;21.00;74.70
40996;DHT22;26723;57.478;12.066;2023-05-10T12:51:40;21.20;74.20
40996;DHT22;26723;57.478;12.066;2023-05-10T12:54:49;21.00;72.60
40996;DHT22;26723;57.478;12.066;2023-05-10T12:57:59;21.20;74.70
40996;DHT22;26723;57.478;12.066;2023-05-10T13:01:07;21.20;72.90
40996;DHT22;26723;57.478;12.066;2023-05-10T13:04:16;21.20;74.80
40996;DHT22;26723;57.478;12.066;2023-05-10T13:07:24;21.30;73.20
40996;DHT22;26723;57.478;12.066;2023-05-10T13:10:37;21.40;72.70
40996;DHT22;26723;57.478;12.066;2023-05-10T13:13:47;21.40;71.20
40996;DHT22;26723;57.478;12.066;2023-05-10T13:16:56;21.20;71.30
40996;DHT22;26723;57.478;12.066;2023-05-10T13:20:05;21.30;77.40
40996;DHT22;26723;57.478;12.066;2023-05-10T13:23:28;21.10;79.30
40996;DHT22;26723;57.478;12.066;2023-05-10T13:26:37;21.20;82.40
40996;DHT22;26723;57.478;12.066;2023-05-10T13:29:47;20.90;86.70
40996;DHT22;26723;57.478;12.066;2023-05-10T13:32:55;20.60;87.70
40996;DHT22;26723;57.478;12.066;2023-05-10T13:36:04;20.50;89.50
40996;DHT22;26723;57.478;12.066;2023-05-10T13:39:13;20.60;77.10
40996;DHT22;26723;57.478;12.066;2023-05-10T13:42:22;20.90;78.90
40996;DHT22;26723;57.478;12.066;2023-05-10T13:45:32;20.80;75.20
40996;DHT22;26723;57.478;12.066;2023-05-10T13:48:41;20.90;74.50
40996;DHT22;26723;57.478;12.066;2023-05-10T13:51:49;21.00;75.30
40996;DHT22;26723;57.478;12.066;2023-05-10T13:54:59;21.00;84.80
40996;DHT22;26723;57.478;12.066;2023-05-10T13:58:08;21.00;77.10
40996;DHT22;26723;57.478;12.066;2023-05-10T14:01:18;21.00;81.30
40996;DHT22;26723;57.478;12.066;2023-05-10T14:04:27;20.90;75.20
40996;DHT22;26723;57.478;12.066;2023-05-10T14:07:35;20.90;75.10
40996;DHT22;26723;57.478;12.066;2023-05-10T14:10:44;20.90;78.20
40996;DHT22;26723;57.478;12.066;2023-05-10T14:13:53;21.00;75.80
40996;DHT22;26723;57.478;12.066;2023-05-10T14:17:02;20.80;73.90
40996;DHT22;26723;57.478;12.066;2023-05-10T14:20:11;20.90;74.60
40996;DHT22;26723;57.478;12.066;2023-05-10T14:23:21;21.00;75.00
40996;DHT22;26723;57.478;12.066;2023-05-10T14:26:31;20.90;73.00
40996;DHT22;26723;57.478;12.066;2023-05-10T14:29:40;20.90;73.00
40996;DHT22;26723;57.478;12.066;2023-05-10T14:32:51;20.80;70.90
40996;DHT22;26723;57.478;12.066;2023-05-10T14:36:01;20.70;71.50
40996;DHT22;26723;57.478;12.066;2023-05-10T14:39:10;20.80;72.00
40996;DHT22;26723;57.478;12.066;2023-05-10T14:42:19;20.80;72.40
40996;DHT22;26723;57.478;12.066;2023-05-10T14:45:29;20.80;72.30
40996;DHT22;26723;57.478;12.066;2023-05-10T14:48:43;20.80;71.50
40996;DHT22;26723;57.478;12.066;2023-05-10T14:51:52;20.60;73.40
40996;DHT22;26723;57.478;12.066;2023-05-10T14:55:00;20.50;75.50
40996;DHT22;26723;57.478;12.066;2023-05-10T14:58:09;20.40;73.10
40996;DHT22;26723;57.478;12.066;2023-05-10T15:01:22;20.40;74.90
40996;DHT22;26723;57.478;12.066;2023-05-10T15:04:33;20.40;73.20
40996;DHT22;26723;57.478;12.066;2023-05-10T15:07:42;20.30;73.20
40996;DHT22;26723;57.478;12.066;2023-05-10T15:10:50;20.20;74.10
40996;DHT22;26723;57.478;12.066;2023-05-10T15:13:59;20.20;73.90
40996;DHT22;26723;57.478;12.066;2023-05-10T15:17:08;20.20;75.10
40996;DHT22;26723;57.478;12.066;2023-05-10T15:20:19;20.20;75.20
40996;DHT22;26723;57.478;12.066;2023-05-10T15:23:27;20.10;75.20
40996;DHT22;26723;57.478;12.066;2023-05-10T15:26:38;20.10;73.70
40996;DHT22;26723;57.478;12.066;2023-05-10T15:29:47;20.10;75.70
40996;DHT22;26723;57.478;12.066;2023-05-10T15:32:56;20.10;76.60
40996;DHT22;26723;57.478;12.066;2023-05-10T15:36:06;20.10;76.60
40996;DHT22;26723;57.478;12.066;2023-05-10T15:39:14;20.10;77.40
40996;DHT22;26723;57.478;12.066;2023-05-10T15:42:23;20.00;78.00
40996;DHT22;26723;57.478;12.066;2023-05-10T15:45:31;19.80;77.30
40996;DHT22;26723;57.478;12.066;2023-05-10T15:48:43;19.80;78.00
40996;DHT22;26723;57.478;12.066;2023-05-10T15:51:53;19.70;77.50
40996;DHT22;26723;57.478;12.066;2023-05-10T15:55:01;19.70;77.60
40996;DHT22;26723;57.478;12.066;2023-05-10T15:58:14;19.80;77.30
40996;DHT22;26723;57.478;12.066;2023-05-10T16:01:25;19.70;78.50
40996;DHT22;26723;57.478;12.066;2023-05-10T16:04:34;19.60;78.90
40996;DHT22;26723;57.478;12.066;2023-05-10T16:07:47;19.70;79.50
40996;DHT22;26723;57.478;12.066;2023-05-10T16:10:56;19.70;85.50
40996;DHT22;26723;57.478;12.066;2023-05-10T16:14:04;19.20;91.60
40996;DHT22;26723;57.478;12.066;2023-05-10T16:17:13;18.90;93.20
40996;DHT22;26723;57.478;12.066;2023-05-10T16:20:32;18.90;93.40
40996;DHT22;26723;57.478;12.066;2023-05-10T16:23:42;19.10;86.70
40996;DHT22;26723;57.478;12.066;2023-05-10T16:26:52;19.30;83.50
40996;DHT22;26723;57.478;12.066;2023-05-10T16:30:01;19.40;82.50
40996;DHT22;26723;57.478;12.066;2023-05-10T16:33:11;19.40;83.20
40996;DHT22;26723;57.478;12.066;2023-05-10T16:36:19;19.40;82.50
40996;DHT22;26723;57.478;12.066;2023-05-10T16:39:32;19.40;83.40
40996;DHT22;26723;57.478;12.066;2023-05-10T16:42:40;19.30;84.40
40996;DHT22;26723;57.478;12.066;2023-05-10T16:45:49;19.30;82.00
40996;DHT22;26723;57.478;12.066;2023-05-10T16:48:58;19.20;81.80
40996;DHT22;26723;57.478;12.066;2023-05-10T16:52:06;19.20;83.10
40996;DHT22;26723;57.478;12.066;2023-05-10T16:55:16;19.20;83.40
40996;DHT22;26723;57.478;12.066;2023-05-10T16:58:25;19.10;83.80
40996;DHT22;26723;57.478;12.066;2023-05-10T17:01:33;19.10;85.40
40996;DHT22;26723;57.478;12.066;2023-05-10T17:04:42;19.00;83.30
40996;DHT22;26723;57.478;12.066;2023-05-10T17:07:50;19.00;84.50
40996;DHT22;26723;57.478;12.066;2023-05-10T17:11:01;19.10;83.20
40996;DHT22;26723;57.478;12.066;2023-05-10T17:14:10;19.00;82.40
40996;DHT22;26723;57.478;12.066;2023-05-10T17:17:21;19.00;82.80
40996;DHT22;26723;57.478;12.066;2023-05-10T17:20:31;18.90;82.70
40996;DHT22;26723;57.478;12.066;2023-05-10T17:23:40;18.80;84.30
40996;DHT22;26723;57.478;12.066;2023-05-10T17:26:50;18.80;83.30
40996;DHT22;26723;57.478;12.066;2023-05-10T17:29:59;18.80;83.90
40996;DHT22;26723;57.478;12.066;2023-05-10T17:33:07;18.80;83.30
40996;DHT22;26723;57.478;12.066;2023-05-10T17:36:16;18.70;83.30
40996;DHT22;26723;57.478;12.066;2023-05-10T17:39:26;18.50;82.50
40996;DHT22;26723;57.478;12.066;2023-05-10T17:42:36;18.50;82.60
40996;DHT22;26723;57.478;12.066;2023-05-10T17:45:48;18.50;81.50
40996;DHT22;26723;57.478;12.066;2023-05-10T17:48:56;18.40;82.00
40996;DHT22;26723;57.478;12.066;2023-05-10T17:52:05;18.40;81.60
40996;DHT22;26723;57.478;12.066;2023-05-10T17:55:14;18.40;82.40
40996;DHT22;26723;57.478;12.066;2023-05-10T17:58:24;18.40;82.50
40996;DHT22;26723;57.478;12.066;2023-05-10T18:01:32;18.20;82.50
40996;DHT22;26723;57.478;12.066;2023-05-10T18:04:42;18.20;82.80
40996;DHT22;26723;57.478;12.066;2023-05-10T18:07:52;18.10;83.60
40996;DHT22;26723;57.478;12.066;2023-05-10T18:11:01;18.10;84.00
40996;DHT22;26723;57.478;12.066;2023-05-10T18:14:11;18.10;84.20
40996;DHT22;26723;57.478;12.066;2023-05-10T18:17:19;18.10;84.40
40996;DHT22;26723;57.478;12.066;2023-05-10T18:20:28;18.00;84.50
40996;DHT22;26723;57.478;12.066;2023-05-10T18:23:37;17.90;85.00
40996;DHT22;26723;57.478;12.066;2023-05-10T18:26:45;17.80;85.60
40996;DHT22;26723;57.478;12.066;2023-05-10T18:29:55;17.80;85.70
40996;DHT22;26723;57.478;12.066;2023-05-10T18:33:03;17.80;85.70
40996;DHT22;26723;57.478;12.066;2023-05-10T18:36:12;17.60;86.30
40996;DHT22;26723;57.478;12.066;2023-05-10T18:39:23;17.60;87.00
40996;DHT22;26723;57.478;12.066;2023-05-10T18:42:31;17.50;86.70
40996;DHT22;26723;57.478;12.066;2023-05-10T18:45:41;17.40;87.00
40996;DHT22;26723;57.478;12.066;2023-05-10T18:48:50;17.30;87.40
40996;DHT22;26723;57.478;12.066;2023-05-10T18:51:59;17.20;87.70
40996;DHT22;26723;57.478;12.066;2023-05-10T18:55:08;17.20;88.00
40996;DHT22;26723;57.478;12.066;2023-05-10T18:58:16;17.20;88.30
40996;DHT22;26723;57.478;12.066;2023-05-10T19:01:27;17.10;88.50
40996;DHT22;26723;57.478;12.066;2023-05-10T19:04:37;17.00;89.10
40996;DHT22;26723;57.478;12.066;2023-05-10T19:07:46;17.00;89.50
40996;DHT22;26723;57.478;12.066;2023-05-10T19:10:55;16.90;90.00
40996;DHT22;26723;57.478;12.066;2023-05-10T19:14:04;16.80;90.20
40996;DHT22;26723;57.478;12.066;2023-05-10T19:17:14;16.70;90.40
40996;DHT22;26723;57.478;12.066;2023-05-10T19:20:25;16.70;90.70
40996;DHT22;26723;57.478;12.066;2023-05-10T19:23:35;16.60;90.90
40996;DHT22;26723;57.478;12.066;2023-05-10T19:26:44;16.50;91.10
40996;DHT22;26723;57.478;12.066;2023-05-10T19:29:54;16.40;91.30
40996;DHT22;26723;57.478;12.066;2023-05-10T19:33:04;16.30;91.90
40996;DHT22;26723;57.478;12.066;2023-05-10T19:36:13;16.20;91.80
40996;DHT22;26723;57.478;12.066;2023-05-10T19:39:21;16.20;92.00
40996;DHT22;26723;57.478;12.066;2023-05-10T19:42:30;16.10;92.10
40996;DHT22;26723;57.478;12.066;2023-05-10T19:45:38;16.10;92.30
40996;DHT22;26723;57.478;12.066;2023-05-10T19:48:52;16.00;92.40